Time;durP1;ratioP1;P1;durP2;ratioP2;P2;SDS_P1;SDS_P2;PMS_P1;PMS_P2;Temp;Humidity;BMP_temperature;BMP_pressure;BME280_temperature;BME280_humidity;BME280_pressure;Samples;Min_cycle;Max_cycle;Signal;HPM_P1;HPM_P2
2023/09/04 00:02:04;;;;;;;2.13;1.70;;;13.60;99.90;;;;;;5068791;28;20068;-75
2023/09/04 00:04:30;;;;;;;4.07;2.15;;;13.50;99.90;;;;;;5076274;28;22255;-75
2023/09/04 00:06:56;;;;;;;1.80;1.40;;;13.50;99.90;;;;;;5056354;28;20043;-75
2023/09/04 00:09:22;;;;;;;2.58;1.65;;;13.50;99.90;;;;;;5042220;28;20103;-75
2023/09/04 00:11:48;;;;;;;2.65;1.80;;;13.40;99.90;;;;;;5043855;28;20068;-75
2023/09/04 00:14:16;;;;;;;3.38;1.90;;;13.40;99.90;;;;;;5095464;28;20079;-75
2023/09/04 00:16:42;;;;;;;2.83;1.95;;;13.40;99.90;;;;;;5058999;28;20041;-75
2023/09/04 00:19:08;;;;;;;2.22;1.95;;;13.40;99.90;;;;;;5042937;28;20374;-75
2023/09/04 00:21:33;;;;;;;2.25;1.63;;;13.40;99.90;;;;;;5059070;28;20033;-75
2023/09/04 00:24:00;;;;;;;2.00;1.80;;;13.40;99.90;;;;;;5047685;28;20036;-75
2023/09/04 00:26:26;;;;;;;2.40;1.90;;;13.30;99.90;;;;;;5056245;28;20578;-75
2023/09/04 00:28:51;;;;;;;4.18;2.10;;;13.30;99.90;;;;;;5061503;28;20041;-75
2023/09/04 00:31:20;;;;;;;3.22;2.40;;;13.30;99.90;;;;;;5052475;28;20048;-75
2023/09/04 00:33:49;;;;;;;2.55;1.90;;;13.30;99.90;;;;;;5063319;28;20560;-75
2023/09/04 00:36:15;;;;;;;2.75;2.45;;;13.20;99.90;;;;;;5062035;28;20045;-75
2023/09/04 00:38:46;;;;;;;3.17;1.92;;;13.10;99.90;;;;;;5059746;28;20062;-75
2023/09/04 00:41:12;;;;;;;3.28;2.50;;;13.10;99.90;;;;;;5059005;28;20052;-76
2023/09/04 00:43:38;;;;;;;4.40;2.67;;;13.10;99.90;;;;;;5048976;28;20039;-75
2023/09/04 00:46:13;;;;;;;3.80;2.83;;;13.20;99.90;;;;;;5054099;28;20076;-75
2023/09/04 00:48:39;;;;;;;5.32;3.33;;;13.20;99.90;;;;;;5059734;28;20125;-75
2023/09/04 00:51:06;;;;;;;3.63;3.20;;;13.20;99.90;;;;;;5063366;28;20094;-75
2023/09/04 00:53:35;;;;;;;3.40;2.65;;;13.20;99.90;;;;;;5067757;28;20123;-75
2023/09/04 00:56:03;;;;;;;3.45;2.60;;;13.20;99.90;;;;;;5040097;28;20037;-74
2023/09/04 00:58:29;;;;;;;4.50;3.00;;;13.20;99.90;;;;;;5061280;28;20500;-75
2023/09/04 01:00:55;;;;;;;4.15;2.22;;;13.20;99.90;;;;;;5064838;28;20183;-75
2023/09/04 01:03:21;;;;;;;2.90;1.63;;;13.20;99.90;;;;;;5060492;28;20369;-75
2023/09/04 01:05:47;;;;;;;2.78;2.15;;;13.10;99.90;;;;;;5073377;28;20475;-75
2023/09/04 01:08:14;;;;;;;2.38;1.90;;;13.10;99.90;;;;;;5059475;28;20047;-75
2023/09/04 01:11:11;;;;;;;3.47;2.30;;;13.10;99.90;;;;;;5060834;28;20093;-76
2023/09/04 01:13:49;;;;;;;3.15;2.47;;;13.10;99.90;;;;;;5042710;28;20049;-75
2023/09/04 01:16:17;;;;;;;2.60;2.20;;;13.00;99.90;;;;;;5060640;28;20043;-75
2023/09/04 01:18:44;;;;;;;2.78;1.33;;;13.00;99.90;;;;;;5064876;28;20045;-75
2023/09/04 01:21:09;;;;;;;2.25;1.33;;;12.90;99.90;;;;;;5072451;28;20053;-75
2023/09/04 01:23:35;;;;;;;2.08;1.73;;;12.80;99.90;;;;;;5043167;28;20032;-75
2023/09/04 01:26:16;;;;;;;3.65;2.20;;;12.80;99.90;;;;;;5063419;28;20114;-76
2023/09/04 01:29:00;;;;;;;2.42;1.58;;;12.80;99.90;;;;;;5075583;28;20705;-75
2023/09/04 01:31:39;;;;;;;4.15;2.53;;;12.70;99.90;;;;;;5047826;28;20768;-76
2023/09/04 01:34:17;;;;;;;3.70;2.25;;;12.70;99.90;;;;;;5063117;28;20151;-75
2023/09/04 01:36:44;;;;;;;2.22;1.85;;;12.70;99.90;;;;;;5060675;28;20465;-76
2023/09/04 01:39:11;;;;;;;2.42;1.77;;;12.60;99.90;;;;;;5047902;28;20067;-75
2023/09/04 01:41:43;;;;;;;3.10;2.20;;;12.60;99.90;;;;;;5059285;28;20040;-76
2023/09/04 01:44:09;;;;;;;4.57;2.38;;;12.60;99.90;;;;;;5058748;28;20071;-75
2023/09/04 01:46:34;;;;;;;4.22;2.60;;;12.60;99.90;;;;;;5068684;28;20049;-75
2023/09/04 01:49:00;;;;;;;4.45;3.35;;;12.60;99.90;;;;;;5057805;28;20048;-75
2023/09/04 01:51:26;;;;;;;3.40;2.53;;;12.60;99.90;;;;;;5047816;28;20048;-76
2023/09/04 01:53:52;;;;;;;4.20;3.30;;;12.50;99.90;;;;;;5066157;28;20040;-76
2023/09/04 01:56:18;;;;;;;4.72;3.55;;;12.50;99.90;;;;;;5061847;28;20090;-76
2023/09/04 01:58:43;;;;;;;6.03;4.55;;;12.60;99.90;;;;;;5063701;28;20059;-76
2023/09/04 02:01:09;;;;;;;6.82;5.00;;;12.60;99.90;;;;;;5047506;28;20056;-76
2023/09/04 02:03:35;;;;;;;7.00;5.28;;;12.60;99.90;;;;;;5046780;28;20453;-76
2023/09/04 02:06:00;;;;;;;5.82;5.22;;;12.60;99.90;;;;;;5044287;28;20690;-77
2023/09/04 02:08:26;;;;;;;6.65;6.05;;;12.70;99.90;;;;;;5040965;28;20052;-76
2023/09/04 02:10:54;;;;;;;7.50;6.80;;;12.60;99.90;;;;;;5037472;28;20045;-76
2023/09/04 02:13:23;;;;;;;7.22;6.13;;;12.60;99.90;;;;;;5052008;28;20087;-76
2023/09/04 02:15:48;;;;;;;5.82;5.28;;;12.60;99.90;;;;;;5057195;28;20724;-76
2023/09/04 02:18:17;;;;;;;6.10;5.43;;;12.70;99.90;;;;;;5056283;28;20053;-76
2023/09/04 02:20:45;;;;;;;6.25;5.65;;;12.60;99.90;;;;;;5050357;28;20037;-76
2023/09/04 02:23:12;;;;;;;6.28;5.45;;;12.60;99.90;;;;;;5056961;28;20131;-76
2023/09/04 02:25:37;;;;;;;5.50;5.00;;;12.60;99.90;;;;;;5057115;28;20041;-77
2023/09/04 02:28:03;;;;;;;5.90;5.30;;;12.60;99.90;;;;;;5047334;28;20110;-76
2023/09/04 02:30:29;;;;;;;8.82;5.75;;;12.60;99.90;;;;;;5051589;28;20045;-76
2023/09/04 02:32:59;;;;;;;6.07;5.13;;;12.50;99.90;;;;;;5095930;28;20040;-76
2023/09/04 02:35:25;;;;;;;5.68;5.10;;;12.60;99.90;;;;;;5056801;28;20047;-76
2023/09/04 02:37:51;;;;;;;5.95;4.90;;;12.50;99.90;;;;;;5095208;28;20048;-76
2023/09/04 02:40:17;;;;;;;5.30;4.80;;;12.60;99.90;;;;;;5057605;28;20045;-76
2023/09/04 02:42:42;;;;;;;6.10;4.43;;;12.50;99.90;;;;;;5042679;28;20047;-77
2023/09/04 02:45:09;;;;;;;5.43;4.90;;;12.50;99.90;;;;;;5056019;28;20045;-76
2023/09/04 02:47:38;;;;;;;7.13;4.85;;;12.50;99.90;;;;;;5052682;28;20028;-76
2023/09/04 02:50:07;;;;;;;6.32;5.28;;;12.50;99.90;;;;;;5061750;28;20450;-77
2023/09/04 02:52:33;;;;;;;5.37;4.83;;;12.50;99.90;;;;;;5055287;28;20107;-77
2023/09/04 02:54:59;;;;;;;5.85;5.15;;;12.50;99.90;;;;;;5035310;28;20809;-76
2023/09/04 02:57:26;;;;;;;6.18;5.57;;;12.50;99.90;;;;;;5043803;28;20406;-76
2023/09/04 02:59:52;;;;;;;6.22;5.18;;;12.50;99.90;;;;;;5056739;28;20098;-76
2023/09/04 03:02:17;;;;;;;7.10;4.97;;;12.40;99.90;;;;;;5063255;28;20505;-77
2023/09/04 03:04:46;;;;;;;5.55;5.03;;;12.40;99.90;;;;;;5058269;28;20179;-76
2023/09/04 03:07:13;;;;;;;6.25;5.50;;;12.40;99.90;;;;;;5046336;28;20080;-76
2023/09/04 03:09:38;;;;;;;5.22;4.55;;;12.50;99.90;;;;;;5043197;28;20033;-76
2023/09/04 03:12:04;;;;;;;6.80;4.97;;;12.40;99.90;;;;;;5055155;28;20084;-76
2023/09/04 03:14:30;;;;;;;6.43;4.68;;;12.40;99.90;;;;;;5047410;28;20079;-76
2023/09/04 03:16:56;;;;;;;6.07;5.10;;;12.40;99.90;;;;;;5045582;28;20048;-76
2023/09/04 03:19:22;;;;;;;6.25;5.18;;;12.40;99.90;;;;;;5042949;28;20503;-77
2023/09/04 03:21:47;;;;;;;7.40;5.70;;;12.40;99.90;;;;;;5056370;28;20053;-76
2023/09/04 03:24:13;;;;;;;6.38;5.20;;;12.40;99.90;;;;;;5048197;28;20076;-76
2023/09/04 03:26:39;;;;;;;5.70;4.40;;;12.40;99.90;;;;;;5045199;28;20047;-76
2023/09/04 03:29:05;;;;;;;5.22;4.32;;;12.40;99.90;;;;;;5062344;28;20048;-76
2023/09/04 03:31:31;;;;;;;5.15;4.30;;;12.40;99.90;;;;;;5057506;28;20052;-77
2023/09/04 03:33:58;;;;;;;4.70;4.20;;;12.40;99.90;;;;;;5040504;28;20078;-77
2023/09/04 03:36:24;;;;;;;5.63;4.60;;;12.40;99.90;;;;;;5055703;28;20041;-76
2023/09/04 03:38:50;;;;;;;5.40;4.65;;;12.30;99.90;;;;;;5042962;28;20040;-77
2023/09/04 03:41:16;;;;;;;10.95;9.85;;;12.30;99.90;;;;;;5054369;28;20502;-76
2023/09/04 03:43:41;;;;;;;7.55;6.75;;;12.30;99.90;;;;;;5055475;28;20067;-76
2023/09/04 03:46:13;;;;;;;6.80;6.20;;;12.30;99.90;;;;;;5043802;28;20387;-76
2023/09/04 03:48:38;;;;;;;7.90;7.07;;;12.30;99.90;;;;;;5057594;28;20125;-76
2023/09/04 03:51:04;;;;;;;7.75;7.05;;;12.20;99.90;;;;;;5053596;28;20128;-76
2023/09/04 03:53:30;;;;;;;7.70;7.00;;;12.20;99.90;;;;;;5050229;28;20048;-76
2023/09/04 03:56:06;;;;;;;7.18;6.30;;;12.30;99.90;;;;;;5048783;28;20499;-77
2023/09/04 03:58:32;;;;;;;7.82;6.95;;;12.20;99.90;;;;;;5061743;28;20191;-76
2023/09/04 04:00:58;;;;;;;7.38;5.97;;;12.20;99.90;;;;;;5050919;28;20119;-77
2023/09/04 04:03:23;;;;;;;6.90;5.80;;;12.20;99.90;;;;;;5052871;28;20048;-76
2023/09/04 04:05:58;;;;;;;7.18;6.07;;;12.20;99.90;;;;;;5051070;28;20387;-76
2023/09/04 04:08:24;;;;;;;6.30;4.30;;;12.20;99.90;;;;;;5084731;28;20052;-76
2023/09/04 04:10:50;;;;;;;6.13;5.53;;;12.10;99.90;;;;;;5090400;28;20564;-76
2023/09/04 04:13:15;;;;;;;7.03;6.30;;;12.10;99.90;;;;;;5062945;28;20124;-76
2023/09/04 04:15:47;;;;;;;9.35;6.60;;;12.10;99.90;;;;;;5062520;28;20063;-76
2023/09/04 04:18:13;;;;;;;6.35;5.53;;;12.00;99.90;;;;;;5055983;28;20040;-77
2023/09/04 04:20:39;;;;;;;6.47;5.82;;;12.00;99.90;;;;;;5047870;28;20047;-77
2023/09/04 04:23:05;;;;;;;6.20;5.40;;;12.00;99.90;;;;;;5051203;28;20037;-76
2023/09/04 04:25:33;;;;;;;5.78;5.18;;;11.90;99.90;;;;;;5063222;28;20048;-76
2023/09/04 04:27:59;;;;;;;5.07;4.57;;;11.90;99.90;;;;;;5053748;28;20052;-77
2023/09/04 04:30:28;;;;;;;4.88;4.38;;;11.90;99.90;;;;;;5066275;28;20505;-77
2023/09/04 04:32:53;;;;;;;5.68;5.07;;;11.90;99.90;;;;;;5106760;27;20051;-77
2023/09/04 04:35:19;;;;;;;6.53;5.60;;;11.80;99.90;;;;;;5073594;28;20051;-77
2023/09/04 04:37:45;;;;;;;5.20;4.43;;;11.80;99.90;;;;;;5059557;28;20044;-77
2023/09/04 04:40:11;;;;;;;6.72;4.95;;;11.80;99.90;;;;;;5062511;28;20059;-76
2023/09/04 04:42:37;;;;;;;9.00;6.18;;;11.80;99.90;;;;;;5057503;28;20032;-77
2023/09/04 04:45:03;;;;;;;8.13;7.22;;;11.80;99.90;;;;;;5066360;28;20561;-77
2023/09/04 04:47:29;;;;;;;8.60;7.70;;;11.80;99.90;;;;;;5046563;28;20116;-77
2023/09/04 04:49:54;;;;;;;8.43;7.63;;;11.80;99.90;;;;;;5071835;28;20611;-77
2023/09/04 04:52:21;;;;;;;6.80;6.03;;;11.80;99.90;;;;;;5070090;28;20123;-77
2023/09/04 04:54:47;;;;;;;6.95;5.82;;;11.80;99.90;;;;;;5065501;28;20104;-77
2023/09/04 04:57:13;;;;;;;7.57;6.43;;;11.70;99.90;;;;;;5046054;28;20040;-77
2023/09/04 04:59:39;;;;;;;9.55;6.55;;;11.70;99.90;;;;;;5068791;28;20189;-77
2023/09/04 05:02:05;;;;;;;6.18;5.57;;;11.80;99.90;;;;;;5064053;28;20044;-78
2023/09/04 05:04:34;;;;;;;8.40;5.60;;;11.70;99.90;;;;;;5066446;28;20390;-77
2023/09/04 05:07:00;;;;;;;6.97;4.75;;;11.70;99.90;;;;;;5044073;28;20120;-78
2023/09/04 05:09:26;;;;;;;6.13;4.43;;;11.70;99.90;;;;;;5050230;28;20143;-77
2023/09/04 05:11:51;;;;;;;5.15;4.15;;;11.80;99.90;;;;;;5063524;28;20376;-77
2023/09/04 05:14:17;;;;;;;6.47;4.50;;;11.70;99.90;;;;;;5054051;28;20052;-78
2023/09/04 05:16:43;;;;;;;5.38;4.70;;;11.80;99.90;;;;;;5066062;28;20040;-77
2023/09/04 05:19:08;;;;;;;5.40;4.38;;;11.80;99.90;;;;;;5060852;28;20071;-78
2023/09/04 05:21:34;;;;;;;7.07;5.32;;;11.80;99.90;;;;;;5047922;28;20406;-77
2023/09/04 05:24:00;;;;;;;7.15;4.90;;;11.80;99.90;;;;;;5056525;28;20602;-78
2023/09/04 05:26:25;;;;;;;6.47;5.15;;;11.90;99.90;;;;;;5053976;28;20140;-78
2023/09/04 05:28:51;;;;;;;4.70;4.15;;;11.90;99.90;;;;;;5044436;28;20040;-77
2023/09/04 05:31:17;;;;;;;5.63;5.03;;;11.80;99.90;;;;;;5060160;28;20053;-78
2023/09/04 05:33:43;;;;;;;6.35;5.18;;;11.80;99.90;;;;;;5040808;28;20040;-78
2023/09/04 05:36:10;;;;;;;5.40;4.70;;;11.80;99.90;;;;;;5057748;28;20041;-78
2023/09/04 05:38:36;;;;;;;5.65;3.95;;;11.80;99.90;;;;;;5040919;28;20479;-77
2023/09/04 05:41:03;;;;;;;8.82;5.35;;;11.90;99.90;;;;;;5042663;28;20040;-78
2023/09/04 05:43:29;;;;;;;8.63;6.03;;;11.90;99.90;;;;;;5049859;28;20048;-78
2023/09/04 05:45:54;;;;;;;7.28;5.43;;;12.00;99.90;;;;;;5059506;28;20118;-78
2023/09/04 05:48:20;;;;;;;6.78;5.40;;;12.00;99.90;;;;;;5053463;28;20136;-78
2023/09/04 05:50:46;;;;;;;6.68;5.95;;;12.10;99.90;;;;;;5048864;28;20131;-78
2023/09/04 05:53:12;;;;;;;7.53;6.03;;;12.10;99.90;;;;;;5055756;28;20052;-78
2023/09/04 05:55:38;;;;;;;10.88;8.35;;;12.10;99.90;;;;;;5061933;28;20040;-78
2023/09/04 05:58:04;;;;;;;12.07;8.77;;;12.10;99.90;;;;;;5055231;28;20045;-80
2023/09/04 06:00:30;;;;;;;13.68;10.30;;;12.10;99.90;;;;;;5043526;28;20059;-78
2023/09/04 06:02:56;;;;;;;10.88;9.77;;;12.10;99.90;;;;;;5041823;28;20600;-78
2023/09/04 06:05:21;;;;;;;11.25;8.93;;;12.10;99.90;;;;;;5048519;28;20040;-77
2023/09/04 06:07:47;;;;;;;10.45;9.43;;;12.20;99.90;;;;;;5052966;28;20040;-79
2023/09/04 06:10:13;;;;;;;11.40;9.93;;;12.20;99.90;;;;;;5066351;28;20101;-79
2023/09/04 06:12:39;;;;;;;10.32;9.43;;;12.30;99.90;;;;;;5040596;28;20047;-78
2023/09/04 06:15:06;;;;;;;10.85;9.38;;;12.40;99.90;;;;;;5062515;28;20054;-78
2023/09/04 06:17:32;;;;;;;10.25;9.23;;;12.40;99.90;;;;;;5093436;27;20047;-78
2023/09/04 06:19:59;;;;;;;11.35;10.23;;;12.50;99.90;;;;;;5054952;28;20521;-78
2023/09/04 06:22:25;;;;;;;11.15;10.07;;;12.50;99.90;;;;;;5058837;28;20049;-78
2023/09/04 06:24:51;;;;;;;11.20;10.20;;;12.60;99.90;;;;;;5065286;28;20056;-78
2023/09/04 06:27:17;;;;;;;11.18;10.07;;;12.70;99.90;;;;;;5048064;28;20049;-78
2023/09/04 06:29:42;;;;;;;15.63;12.85;;;12.80;99.90;;;;;;5047564;28;20433;-78
2023/09/04 06:32:10;;;;;;;12.10;10.80;;;12.90;99.90;;;;;;5054892;28;20594;-77
2023/09/04 06:34:39;;;;;;;14.57;13.18;;;12.90;99.90;;;;;;5048215;28;20470;-78
2023/09/04 06:37:04;;;;;;;17.10;14.85;;;13.00;99.90;;;;;;5044793;28;20119;-78
2023/09/04 06:39:30;;;;;;;12.90;11.70;;;13.10;99.90;;;;;;5063259;28;20522;-78
2023/09/04 06:41:56;;;;;;;14.60;13.10;;;13.10;99.90;;;;;;5055113;28;20041;-79
2023/09/04 06:44:21;;;;;;;14.43;13.00;;;13.10;99.90;;;;;;5061173;28;20062;-79
2023/09/04 06:46:47;;;;;;;14.25;12.95;;;13.30;99.90;;;;;;5052759;28;20381;-78
2023/09/04 06:49:13;;;;;;;14.65;13.30;;;13.40;99.90;;;;;;5048051;28;20380;-78
2023/09/04 06:51:43;;;;;;;13.07;11.90;;;13.50;99.90;;;;;;5045187;28;20440;-79
2023/09/04 06:54:08;;;;;;;13.93;12.47;;;13.60;99.90;;;;;;5063309;28;20580;-79
2023/09/04 06:56:34;;;;;;;13.57;12.35;;;13.60;99.90;;;;;;5043097;28;20602;-78
2023/09/04 06:59:00;;;;;;;14.50;13.10;;;13.80;99.90;;;;;;5067443;28;20037;-78
2023/09/04 07:01:26;;;;;;;13.45;12.15;;;13.90;99.90;;;;;;5043787;28;20048;-78
2023/09/04 07:03:54;;;;;;;12.95;11.63;;;13.90;99.90;;;;;;5046558;28;20697;-77
2023/09/04 07:06:20;;;;;;;10.98;9.88;;;14.00;99.90;;;;;;5056910;28;20041;-77
2023/09/04 07:08:46;;;;;;;11.68;10.57;;;14.20;99.90;;;;;;5042889;28;20043;-77
2023/09/04 07:11:12;;;;;;;10.90;9.80;;;14.40;99.90;;;;;;5070333;28;20053;-76
2023/09/04 07:13:38;;;;;;;10.15;9.23;;;14.50;99.90;;;;;;5044807;28;20040;-76
2023/09/04 07:16:03;;;;;;;10.45;9.20;;;14.70;99.90;;;;;;5056551;28;20633;-77
2023/09/04 07:18:29;;;;;;;8.80;7.90;;;14.90;99.90;;;;;;5061229;28;20514;-77
2023/09/04 07:20:55;;;;;;;8.75;7.88;;;15.00;99.90;;;;;;5045106;28;20307;-76
2023/09/04 07:23:20;;;;;;;7.63;6.93;;;15.20;99.90;;;;;;5062732;28;20049;-76
2023/09/04 07:25:46;;;;;;;7.13;6.43;;;15.40;99.90;;;;;;5070399;28;20134;-76
2023/09/04 07:28:12;;;;;;;7.20;6.47;;;15.60;99.90;;;;;;5059842;28;20127;-75
2023/09/04 07:30:38;;;;;;;6.28;5.63;;;15.80;99.90;;;;;;5060456;28;20040;-76
2023/09/04 07:33:04;;;;;;;6.60;5.68;;;16.00;99.90;;;;;;5094443;28;20040;-76
2023/09/04 07:35:29;;;;;;;6.90;5.25;;;16.20;99.90;;;;;;5063504;28;20040;-75
2023/09/04 07:37:56;;;;;;;7.40;5.70;;;16.30;99.90;;;;;;5047981;28;20036;-76
2023/09/04 07:40:22;;;;;;;6.35;5.40;;;16.50;99.90;;;;;;5044627;28;20418;-76
2023/09/04 07:42:48;;;;;;;6.57;5.22;;;16.70;99.90;;;;;;5051185;28;20043;-76
2023/09/04 07:45:15;;;;;;;6.68;5.20;;;16.90;99.90;;;;;;5069912;28;20487;-76
2023/09/04 07:47:41;;;;;;;6.65;5.05;;;17.00;99.90;;;;;;5073666;28;20044;-75
2023/09/04 07:50:07;;;;;;;6.45;5.32;;;17.20;99.90;;;;;;5057229;28;20060;-75
2023/09/04 07:52:33;;;;;;;7.10;5.20;;;17.40;99.90;;;;;;5063423;28;20052;-75
2023/09/04 07:54:58;;;;;;;6.15;5.43;;;17.60;99.90;;;;;;5045711;28;20041;-75
2023/09/04 07:57:24;;;;;;;7.00;5.80;;;17.80;99.90;;;;;;5063231;28;20040;-75
2023/09/04 07:59:51;;;;;;;6.45;5.70;;;17.90;99.90;;;;;;5053353;28;20044;-75
2023/09/04 08:02:19;;;;;;;6.13;5.50;;;18.10;99.90;;;;;;5052618;28;20032;-76
2023/09/04 08:04:45;;;;;;;5.95;5.28;;;18.30;99.90;;;;;;5048712;28;20044;-75
2023/09/04 08:07:14;;;;;;;6.32;5.07;;;18.50;99.90;;;;;;5039898;28;20119;-75
2023/09/04 08:09:39;;;;;;;5.90;4.53;;;18.70;99.90;;;;;;5055787;28;20055;-75
2023/09/04 08:12:05;;;;;;;6.63;4.90;;;18.80;99.90;;;;;;5054983;28;20040;-75
2023/09/04 08:14:35;;;;;;;6.88;4.97;;;19.00;99.90;;;;;;5056868;28;20178;-75
2023/09/04 08:17:02;;;;;;;6.10;4.35;;;19.20;99.90;;;;;;5058838;28;20449;-75
2023/09/04 08:19:31;;;;;;;6.30;4.45;;;19.30;99.90;;;;;;5049617;28;20131;-75
2023/09/04 08:21:58;;;;;;;5.13;4.20;;;19.40;99.90;;;;;;5088933;28;20417;-75
2023/09/04 08:24:24;;;;;;;5.28;4.25;;;19.60;99.90;;;;;;5059648;28;20132;-76
2023/09/04 08:26:50;;;;;;;6.07;3.78;;;19.70;99.90;;;;;;5063479;28;20134;-75
2023/09/04 08:29:16;;;;;;;5.38;4.05;;;19.80;99.90;;;;;;5059062;28;20109;-75
2023/09/04 08:31:42;;;;;;;6.28;4.22;;;19.90;99.90;;;;;;5044335;28;20048;-75
2023/09/04 08:34:08;;;;;;;5.50;4.20;;;20.00;99.90;;;;;;5060157;28;20040;-75
2023/09/04 08:36:33;;;;;;;5.07;4.00;;;20.20;99.90;;;;;;5060571;28;20557;-75
2023/09/04 08:38:59;;;;;;;5.35;4.05;;;20.30;99.90;;;;;;5044764;28;20036;-75
2023/09/04 08:41:27;;;;;;;5.82;3.97;;;20.40;99.90;;;;;;5061255;28;20043;-75
2023/09/04 08:43:53;;;;;;;3.97;3.58;;;20.50;99.90;;;;;;5061169;28;20087;-75
2023/09/04 08:46:20;;;;;;;5.15;3.50;;;20.60;99.90;;;;;;5058934;28;20515;-75
2023/09/04 08:48:48;;;;;;;5.78;3.92;;;20.70;99.90;;;;;;5061322;28;20048;-75
2023/09/04 08:51:15;;;;;;;5.30;3.28;;;20.80;99.90;;;;;;5067243;28;20543;-75
2023/09/04 08:53:41;;;;;;;4.03;3.08;;;20.90;99.90;;;;;;5078546;28;20040;-75
2023/09/04 08:56:07;;;;;;;5.53;3.75;;;21.10;99.90;;;;;;5063053;28;20043;-75
2023/09/04 08:58:33;;;;;;;3.85;3.20;;;21.20;99.90;;;;;;5058523;28;20045;-75
2023/09/04 09:00:59;;;;;;;5.28;2.90;;;21.30;99.90;;;;;;5060329;28;20123;-75
2023/09/04 09:03:25;;;;;;;3.72;2.90;;;21.40;99.90;;;;;;5072991;28;20052;-75
2023/09/04 09:05:55;;;;;;;4.72;2.72;;;21.50;99.90;;;;;;5060899;28;20048;-75
2023/09/04 09:08:22;;;;;;;;;;;21.60;99.90;;;;;;5057140;28;20059;-75
2023/09/04 09:10:48;;;;;;;4.03;2.20;;;21.70;99.90;;;;;;5067546;28;19965;-75
2023/09/04 09:13:14;;;;;;;4.05;2.40;;;21.80;99.90;;;;;;5068298;28;20040;-75
2023/09/04 09:15:47;;;;;;;3.97;2.30;;;22.00;99.90;;;;;;5098210;27;20497;-75
2023/09/04 09:18:40;;;;;;;5.32;2.30;;;22.10;99.90;;;;;;5065633;28;21713;-75
2023/09/04 09:21:28;;;;;;;3.05;1.95;;;22.10;99.90;;;;;;5046514;28;20478;-75
2023/09/04 09:24:15;;;;;;;5.40;2.60;;;22.20;99.90;;;;;;5062401;28;20055;-75
2023/09/04 09:26:47;;;;;;;3.67;2.30;;;22.30;99.90;;;;;;5067148;28;20481;-75
2023/09/04 09:29:14;;;;;;;3.55;1.90;;;22.40;99.90;;;;;;5044978;28;20057;-75
2023/09/04 09:31:43;;;;;;;4.13;2.30;;;22.50;99.90;;;;;;5052116;28;20075;-75
2023/09/04 09:34:10;;;;;;;3.58;2.08;;;22.60;99.90;;;;;;5059222;28;20434;-75
2023/09/04 09:36:36;;;;;;;3.75;2.22;;;22.70;99.90;;;;;;5048243;28;20419;-75
2023/09/04 09:39:04;;;;;;;3.95;1.98;;;22.70;99.90;;;;;;5055845;28;20051;-75
2023/09/04 09:41:30;;;;;;;4.07;2.28;;;22.80;99.90;;;;;;5061701;28;20106;-75
2023/09/04 09:43:59;;;;;;;4.90;2.40;;;22.80;99.90;;;;;;5059782;28;20074;-75
2023/09/04 09:46:25;;;;;;;3.33;2.05;;;22.80;99.90;;;;;;5064977;28;20498;-75
2023/09/04 09:48:50;;;;;;;3.10;1.90;;;22.80;99.90;;;;;;5046810;28;20044;-75
2023/09/04 09:51:17;;;;;;;4.38;2.40;;;22.90;99.90;;;;;;5059374;28;20135;-75
2023/09/04 09:53:45;;;;;;;3.17;2.38;;;23.00;99.90;;;;;;5048108;28;20072;-75
2023/09/04 09:56:21;;;;;;;3.20;2.15;;;23.00;99.90;;;;;;5094405;27;20040;-75
2023/09/04 09:58:48;;;;;;;3.95;1.77;;;23.10;99.90;;;;;;5051057;28;20121;-75
2023/09/04 10:01:16;;;;;;;2.90;2.10;;;23.20;99.90;;;;;;5062538;28;20051;-75
2023/09/04 10:03:47;;;;;;;4.53;2.53;;;23.30;99.90;;;;;;5057271;28;20051;-75
2023/09/04 10:06:29;;;;;;;5.00;2.75;;;23.30;99.90;;;;;;5041999;28;20174;-75
2023/09/04 10:08:57;;;;;;;3.25;1.95;;;23.40;99.90;;;;;;5052714;28;20047;-75
2023/09/04 10:11:24;;;;;;;2.92;2.08;;;23.50;99.90;;;;;;5092510;28;20075;-75
2023/09/04 10:14:13;;;;;;;4.57;2.50;;;23.50;99.90;;;;;;5066489;28;20051;-75
2023/09/04 10:16:50;;;;;;;3.38;1.95;;;23.70;99.90;;;;;;5092939;27;20079;-75
2023/09/04 10:19:17;;;;;;;5.53;2.55;;;23.80;99.90;;;;;;5048967;28;20523;-75
2023/09/04 10:21:51;;;;;;;3.85;2.13;;;23.90;99.90;;;;;;5044773;28;20521;-75
2023/09/04 10:24:26;;;;;;;3.22;1.73;;;23.90;99.90;;;;;;5050542;28;20155;-75
2023/09/04 10:27:05;;;;;;;3.80;1.95;;;23.80;99.90;;;;;;5048796;28;20346;-75
2023/09/04 10:29:38;;;;;;;4.18;2.10;;;23.90;99.90;;;;;;5058631;28;20062;-75
2023/09/04 10:32:04;;;;;;;3.42;2.33;;;23.80;99.90;;;;;;5059409;28;20154;-75
2023/09/04 10:34:31;;;;;;;5.40;2.22;;;23.90;99.90;;;;;;5048474;28;20437;-75
2023/09/04 10:36:58;;;;;;;3.13;2.03;;;24.00;99.90;;;;;;5063269;28;20604;-75
2023/09/04 10:39:27;;;;;;;3.20;1.92;;;24.10;99.90;;;;;;5065348;28;20553;-75
2023/09/04 10:41:53;;;;;;;5.63;2.85;;;24.20;99.90;;;;;;5062215;28;20117;-75
2023/09/04 10:44:45;;;;;;;3.78;2.10;;;24.30;99.90;;;;;;5075486;28;20048;-75
2023/09/04 10:47:12;;;;;;;4.38;2.10;;;24.40;99.90;;;;;;5060953;28;20499;-75
2023/09/04 10:49:38;;;;;;;5.35;2.10;;;24.50;99.90;;;;;;5060118;28;20032;-75
2023/09/04 10:52:05;;;;;;;2.75;2.08;;;24.40;99.90;;;;;;5069291;28;20071;-75
2023/09/04 10:54:30;;;;;;;3.30;2.13;;;24.30;99.90;;;;;;5046821;28;20342;-75
2023/09/04 10:57:06;;;;;;;4.53;2.58;;;24.40;99.90;;;;;;5044203;28;20098;-75
2023/09/04 10:59:55;;;;;;;3.50;2.22;;;24.50;99.90;;;;;;5041404;28;20055;-75
2023/09/04 11:02:32;;;;;;;3.53;2.10;;;24.50;99.90;;;;;;5094843;27;20044;-75
2023/09/04 11:05:03;;;;;;;2.55;1.80;;;24.60;99.90;;;;;;5059343;28;20828;-75
2023/09/04 11:07:36;;;;;;;2.45;2.00;;;24.70;99.90;;;;;;5074473;28;20036;-74
2023/09/04 11:10:06;;;;;;;3.40;2.00;;;24.80;99.90;;;;;;5064419;28;20452;-75
2023/09/04 11:12:35;;;;;;;4.38;2.10;;;24.90;99.20;;;;;;5047162;28;20048;-75
2023/09/04 11:15:01;;;;;;;3.33;2.00;;;24.90;98.50;;;;;;5060420;28;20385;-75
2023/09/04 11:17:28;;;;;;;4.43;1.80;;;24.90;98.30;;;;;;5075350;28;20460;-75
2023/09/04 11:19:54;;;;;;;3.40;2.20;;;24.90;98.70;;;;;;5053363;28;20059;-75
2023/09/04 11:22:21;;;;;;;2.65;1.90;;;24.90;97.70;;;;;;5047184;28;20410;-75
2023/09/04 11:24:47;;;;;;;2.45;1.95;;;25.00;97.40;;;;;;5057638;28;20056;-75
2023/09/04 11:27:13;;;;;;;3.03;2.08;;;25.10;97.90;;;;;;5059976;28;20044;-75
2023/09/04 11:29:38;;;;;;;3.50;2.10;;;25.20;98.80;;;;;;5063148;28;20117;-75
2023/09/04 11:32:07;;;;;;;3.10;1.73;;;25.30;97.10;;;;;;5070162;28;20048;-75
2023/09/04 11:34:33;;;;;;;3.25;2.05;;;25.30;96.60;;;;;;5055646;28;20067;-74
2023/09/04 11:36:59;;;;;;;3.20;1.85;;;25.30;95.60;;;;;;5049379;28;21085;-74
2023/09/04 11:39:25;;;;;;;2.47;1.50;;;25.20;96.90;;;;;;5045368;28;20049;-75
2023/09/04 11:41:51;;;;;;;3.00;1.90;;;25.20;96.80;;;;;;5059739;28;20036;-74
2023/09/04 11:44:16;;;;;;;3.50;1.75;;;25.30;96.90;;;;;;5058028;28;20704;-74
2023/09/04 11:46:43;;;;;;;2.75;1.83;;;25.30;96.10;;;;;;5052307;28;20114;-75
2023/09/04 11:49:09;;;;;;;3.72;1.90;;;25.30;96.00;;;;;;5057738;28;20041;-75
2023/09/04 11:51:36;;;;;;;3.22;1.85;;;25.40;96.30;;;;;;5059612;28;20041;-74
2023/09/04 11:54:08;;;;;;;5.15;1.70;;;25.40;97.10;;;;;;5045389;28;20032;-74
2023/09/04 11:56:34;;;;;;;3.00;1.70;;;25.40;96.60;;;;;;5057276;28;20089;-74
2023/09/04 11:59:02;;;;;;;2.45;1.75;;;25.50;96.90;;;;;;5068548;28;20078;-74
2023/09/04 12:01:28;;;;;;;2.90;1.92;;;25.50;95.60;;;;;;5058860;28;20048;-76
2023/09/04 12:03:54;;;;;;;3.25;2.25;;;25.50;95.10;;;;;;5067210;28;20080;-74
2023/09/04 12:06:25;;;;;;;2.70;1.80;;;25.50;96.20;;;;;;5055769;28;20041;-74
2023/09/04 12:08:51;;;;;;;3.03;2.05;;;25.50;96.10;;;;;;5069937;28;20517;-74
2023/09/04 12:11:17;;;;;;;4.03;2.03;;;25.60;96.60;;;;;;5067458;28;20093;-74
2023/09/04 12:13:43;;;;;;;3.40;2.20;;;25.60;96.00;;;;;;5050887;28;20463;-74
2023/09/04 12:16:10;;;;;;;4.93;1.98;;;25.60;95.80;;;;;;5072434;28;20043;-75
2023/09/04 12:18:37;;;;;;;3.17;1.92;;;25.60;97.40;;;;;;5057935;28;20193;-74
2023/09/04 12:21:11;;;;;;;3.88;1.70;;;25.70;96.90;;;;;;5049742;28;20049;-74
2023/09/04 12:23:39;;;;;;;3.08;1.50;;;25.70;97.80;;;;;;5063796;28;20045;-74
2023/09/04 12:26:08;;;;;;;3.20;1.90;;;25.70;96.50;;;;;;5062055;28;20386;-74
2023/09/04 12:28:36;;;;;;;3.35;1.70;;;25.80;95.40;;;;;;5061911;28;20646;-74
2023/09/04 12:31:02;;;;;;;2.67;1.75;;;25.80;94.70;;;;;;5065269;28;20052;-74
2023/09/04 12:33:28;;;;;;;3.25;1.73;;;25.80;95.00;;;;;;5055011;28;20044;-74
2023/09/04 12:35:58;;;;;;;3.42;1.80;;;25.90;94.40;;;;;;5050478;28;20037;-74
2023/09/04 12:38:24;;;;;;;3.25;2.20;;;25.90;94.20;;;;;;5065895;28;20051;-74
2023/09/04 12:40:50;;;;;;;3.08;1.92;;;25.90;93.80;;;;;;5059894;28;20565;-74
2023/09/04 12:43:15;;;;;;;2.83;1.83;;;25.80;93.80;;;;;;5053747;28;20041;-74
2023/09/04 12:45:42;;;;;;;2.05;1.70;;;25.80;93.70;;;;;;5044131;28;20045;-74
2023/09/04 12:48:17;;;;;;;2.95;1.77;;;25.80;93.40;;;;;;5050860;28;20039;-75